sensor_id;sensor_type;location;lat;lon;timestamp;pressure;altitude;pressure_sealevel;temperature;humidity
29903;BME280;30288;50.514;9.678;2024-03-07T00:01:30;99468.81;;;1.44;100.00
29903;BME280;30288;50.514;9.678;2024-03-07T00:03:35;99470.31;;;1.36;100.00
29903;BME280;30288;50.514;9.678;2024-03-07T00:05:44;99469.09;;;1.17;100.00
29903;BME280;30288;50.514;9.678;2024-03-07T00:07:50;99471.53;;;1.14;100.00
29903;BME280;30288;50.514;9.678;2024-03-07T00:09:53;99474.50;;;1.01;100.00
29903;BME280;30288;50.514;9.678;2024-03-07T00:12:00;99464.50;;;0.95;100.00
29903;BME280;30288;50.514;9.678;2024-03-07T00:14:05;99466.06;;;0.93;100.00
29903;BME280;30288;50.514;9.678;2024-03-07T00:16:11;99472.63;;;0.91;100.00
29903;BME280;30288;50.514;9.678;2024-03-07T00:18:16;99467.66;;;0.91;100.00
29903;BME280;30288;50.514;9.678;2024-03-07T00:20:21;99469.16;;;0.82;100.00
29903;BME280;30288;50.514;9.678;2024-03-07T00:22:29;99473.84;;;0.72;100.00
29903;BME280;30288;50.514;9.678;2024-03-07T00:24:35;99469.06;;;0.78;100.00
29903;BME280;30288;50.514;9.678;2024-03-07T00:26:41;99470.59;;;0.73;100.00
29903;BME280;30288;50.514;9.678;2024-03-07T00:28:47;99472.16;;;0.69;100.00
29903;BME280;30288;50.514;9.678;2024-03-07T00:30:52;99458.88;;;0.67;100.00
29903;BME280;30288;50.514;9.678;2024-03-07T00:32:57;99466.25;;;0.64;100.00
29903;BME280;30288;50.514;9.678;2024-03-07T00:35:04;99476.97;;;0.63;100.00
29903;BME280;30288;50.514;9.678;2024-03-07T00:37:11;99476.75;;;0.54;100.00
29903;BME280;30288;50.514;9.678;2024-03-07T00:39:19;99475.00;;;0.50;100.00
29903;BME280;30288;50.514;9.678;2024-03-07T00:41:26;99469.16;;;0.47;100.00
29903;BME280;30288;50.514;9.678;2024-03-07T00:43:33;99466.63;;;0.45;100.00
29903;BME280;30288;50.514;9.678;2024-03-07T00:45:35;99468.31;;;0.46;100.00
29903;BME280;30288;50.514;9.678;2024-03-07T00:47:41;99468.09;;;0.37;100.00
29903;BME280;30288;50.514;9.678;2024-03-07T00:49:46;99466.34;;;0.33;100.00
29903;BME280;30288;50.514;9.678;2024-03-07T00:51:52;99471.44;;;0.39;100.00
29903;BME280;30288;50.514;9.678;2024-03-07T00:53:58;99466.69;;;0.48;100.00
29903;BME280;30288;50.514;9.678;2024-03-07T00:56:06;99478.13;;;0.43;100.00
29903;BME280;30288;50.514;9.678;2024-03-07T00:58:11;99472.03;;;0.30;100.00
29903;BME280;30288;50.514;9.678;2024-03-07T01:00:16;99467.53;;;0.16;100.00
29903;BME280;30288;50.514;9.678;2024-03-07T01:02:23;99462.44;;;0.10;100.00
29903;BME280;30288;50.514;9.678;2024-03-07T01:04:30;99468.44;;;0.19;100.00
29903;BME280;30288;50.514;9.678;2024-03-07T01:06:36;99467.53;;;0.16;100.00
29903;BME280;30288;50.514;9.678;2024-03-07T01:08:44;99452.47;;;0.07;100.00
29903;BME280;30288;50.514;9.678;2024-03-07T01:10:49;99459.09;;;0.08;100.00
29903;BME280;30288;50.514;9.678;2024-03-07T01:12:58;99457.19;;;-0.03;100.00
29903;BME280;30288;50.514;9.678;2024-03-07T01:15:05;99457.84;;;-0.08;100.00
29903;BME280;30288;50.514;9.678;2024-03-07T01:17:08;99458.41;;;-0.20;100.00
29903;BME280;30288;50.514;9.678;2024-03-07T01:19:14;99458.06;;;-0.32;100.00
29903;BME280;30288;50.514;9.678;2024-03-07T01:21:20;99454.72;;;-0.34;100.00
29903;BME280;30288;50.514;9.678;2024-03-07T01:23:26;99452.44;;;-0.26;100.00
29903;BME280;30288;50.514;9.678;2024-03-07T01:25:30;99446.56;;;-0.30;100.00
29903;BME280;30288;50.514;9.678;2024-03-07T01:27:36;99458.16;;;-0.29;100.00
29903;BME280;30288;50.514;9.678;2024-03-07T01:29:46;99455.03;;;-0.22;100.00
29903;BME280;30288;50.514;9.678;2024-03-07T01:31:50;99445.06;;;-0.25;100.00
29903;BME280;30288;50.514;9.678;2024-03-07T01:33:56;99453.09;;;-0.32;100.00
29903;BME280;30288;50.514;9.678;2024-03-07T01:36:02;99448.81;;;-0.37;100.00
29903;BME280;30288;50.514;9.678;2024-03-07T01:38:07;99451.19;;;-0.42;100.00
29903;BME280;30288;50.514;9.678;2024-03-07T01:40:13;99448.63;;;-0.45;100.00
29903;BME280;30288;50.514;9.678;2024-03-07T01:42:21;99439.53;;;-0.46;100.00
29903;BME280;30288;50.514;9.678;2024-03-07T01:44:24;99436.19;;;-0.48;100.00
29903;BME280;30288;50.514;9.678;2024-03-07T01:46:32;99431.25;;;-0.48;100.00
29903;BME280;30288;50.514;9.678;2024-03-07T01:48:38;99429.44;;;-0.52;100.00
29903;BME280;30288;50.514;9.678;2024-03-07T01:50:43;99439.28;;;-0.55;100.00
29903;BME280;30288;50.514;9.678;2024-03-07T01:52:49;99431.00;;;-0.57;100.00
29903;BME280;30288;50.514;9.678;2024-03-07T01:54:57;99433.22;;;-0.65;100.00
29903;BME280;30288;50.514;9.678;2024-03-07T01:57:04;99434.16;;;-0.61;100.00
29903;BME280;30288;50.514;9.678;2024-03-07T01:59:11;99432.56;;;-0.59;100.00
29903;BME280;30288;50.514;9.678;2024-03-07T02:01:17;99425.69;;;-0.69;100.00
29903;BME280;30288;50.514;9.678;2024-03-07T02:03:26;99420.41;;;-0.81;100.00
29903;BME280;30288;50.514;9.678;2024-03-07T02:05:31;99419.34;;;-0.90;100.00
29903;BME280;30288;50.514;9.678;2024-03-07T02:07:36;99427.34;;;-0.98;100.00
29903;BME280;30288;50.514;9.678;2024-03-07T02:09:42;99417.97;;;-0.80;100.00
29903;BME280;30288;50.514;9.678;2024-03-07T02:11:48;99416.34;;;-0.79;100.00
29903;BME280;30288;50.514;9.678;2024-03-07T02:13:54;99418.63;;;-0.85;100.00
29903;BME280;30288;50.514;9.678;2024-03-07T02:15:59;99414.53;;;-0.85;100.00
29903;BME280;30288;50.514;9.678;2024-03-07T02:18:06;99419.56;;;-0.82;100.00
29903;BME280;30288;50.514;9.678;2024-03-07T02:20:14;99418.81;;;-0.79;100.00
29903;BME280;30288;50.514;9.678;2024-03-07T02:22:23;99417.00;;;-0.85;100.00
29903;BME280;30288;50.514;9.678;2024-03-07T02:24:26;99413.03;;;-0.80;100.00
29903;BME280;30288;50.514;9.678;2024-03-07T02:26:32;99413.59;;;-0.89;100.00
29903;BME280;30288;50.514;9.678;2024-03-07T02:28:34;99413.44;;;-0.95;100.00
29903;BME280;30288;50.514;9.678;2024-03-07T02:30:39;99411.66;;;-0.99;100.00
29903;BME280;30288;50.514;9.678;2024-03-07T02:32:46;99414.41;;;-0.90;100.00
29903;BME280;30288;50.514;9.678;2024-03-07T02:34:58;99407.81;;;-0.89;100.00
29903;BME280;30288;50.514;9.678;2024-03-07T02:37:03;99410.41;;;-0.84;100.00
29903;BME280;30288;50.514;9.678;2024-03-07T02:39:14;99410.94;;;-0.96;100.00
29903;BME280;30288;50.514;9.678;2024-03-07T02:41:19;99419.91;;;-0.98;100.00
29903;BME280;30288;50.514;9.678;2024-03-07T02:43:24;99411.91;;;-0.90;100.00
29903;BME280;30288;50.514;9.678;2024-03-07T02:45:30;99410.94;;;-0.95;100.00
29903;BME280;30288;50.514;9.678;2024-03-07T02:47:33;99419.00;;;-1.02;100.00
29903;BME280;30288;50.514;9.678;2024-03-07T02:49:41;99413.28;;;-1.01;100.00
29903;BME280;30288;50.514;9.678;2024-03-07T02:51:47;99411.78;;;-0.96;100.00
29903;BME280;30288;50.514;9.678;2024-03-07T02:53:52;99411.59;;;-1.02;100.00
29903;BME280;30288;50.514;9.678;2024-03-07T02:56:00;99411.59;;;-1.02;100.00
29903;BME280;30288;50.514;9.678;2024-03-07T02:58:06;99401.16;;;-0.92;100.00
29903;BME280;30288;50.514;9.678;2024-03-07T03:00:15;99409.97;;;-1.00;100.00
29903;BME280;30288;50.514;9.678;2024-03-07T03:02:29;99405.22;;;-0.94;100.00
29903;BME280;30288;50.514;9.678;2024-03-07T03:04:35;99401.78;;;-0.99;100.00
29903;BME280;30288;50.514;9.678;2024-03-07T03:06:40;99402.22;;;-0.83;100.00
29903;BME280;30288;50.514;9.678;2024-03-07T03:08:46;99405.13;;;-0.68;100.00
29903;BME280;30288;50.514;9.678;2024-03-07T03:10:52;99397.69;;;-0.37;100.00
29903;BME280;30288;50.514;9.678;2024-03-07T03:12:58;99388.75;;;-0.32;100.00
29903;BME280;30288;50.514;9.678;2024-03-07T03:15:06;99392.28;;;-0.24;100.00
29903;BME280;30288;50.514;9.678;2024-03-07T03:17:14;99390.00;;;-0.16;100.00
29903;BME280;30288;50.514;9.678;2024-03-07T03:19:19;99391.13;;;-0.04;100.00
29903;BME280;30288;50.514;9.678;2024-03-07T03:21:25;99391.41;;;0.07;100.00
29903;BME280;30288;50.514;9.678;2024-03-07T03:23:31;99398.22;;;0.16;100.00
29903;BME280;30288;50.514;9.678;2024-03-07T03:25:37;99391.72;;;0.21;100.00
29903;BME280;30288;50.514;9.678;2024-03-07T03:27:46;99373.53;;;0.19;100.00
29903;BME280;30288;50.514;9.678;2024-03-07T03:29:54;99375.34;;;0.26;100.00
29903;BME280;30288;50.514;9.678;2024-03-07T03:31:59;99377.28;;;0.37;100.00
29903;BME280;30288;50.514;9.678;2024-03-07T03:34:05;99375.69;;;0.41;100.00
29903;BME280;30288;50.514;9.678;2024-03-07T03:36:13;99385.72;;;0.46;100.00
29903;BME280;30288;50.514;9.678;2024-03-07T03:38:19;99384.13;;;0.49;100.00
29903;BME280;30288;50.514;9.678;2024-03-07T03:40:29;99382.78;;;0.62;100.00
29903;BME280;30288;50.514;9.678;2024-03-07T03:42:35;99381.31;;;0.71;100.00
29903;BME280;30288;50.514;9.678;2024-03-07T03:44:41;99374.84;;;0.78;100.00
29903;BME280;30288;50.514;9.678;2024-03-07T03:46:49;99364.19;;;0.82;100.00
29903;BME280;30288;50.514;9.678;2024-03-07T03:48:52;99368.59;;;0.94;100.00
29903;BME280;30288;50.514;9.678;2024-03-07T03:50:58;99367.03;;;0.99;100.00
29903;BME280;30288;50.514;9.678;2024-03-07T03:53:03;99364.56;;;1.00;100.00
29903;BME280;30288;50.514;9.678;2024-03-07T03:55:10;99363.94;;;1.09;100.00
29903;BME280;30288;50.514;9.678;2024-03-07T03:57:17;99358.94;;;1.07;100.00
29903;BME280;30288;50.514;9.678;2024-03-07T03:59:21;99359.94;;;1.17;100.00
29903;BME280;30288;50.514;9.678;2024-03-07T04:01:26;99359.06;;;1.15;100.00
29903;BME280;30288;50.514;9.678;2024-03-07T04:03:35;99360.63;;;1.10;100.00
29903;BME280;30288;50.514;9.678;2024-03-07T04:05:40;99357.28;;;1.08;100.00
29903;BME280;30288;50.514;9.678;2024-03-07T04:07:46;99363.97;;;1.12;100.00
29903;BME280;30288;50.514;9.678;2024-03-07T04:09:52;99367.44;;;1.20;100.00
29903;BME280;30288;50.514;9.678;2024-03-07T04:11:57;99358.47;;;1.26;100.00
29903;BME280;30288;50.514;9.678;2024-03-07T04:14:04;99357.66;;;1.26;100.00
29903;BME280;30288;50.514;9.678;2024-03-07T04:16:09;99361.00;;;1.28;100.00
29903;BME280;30288;50.514;9.678;2024-03-07T04:18:14;99357.81;;;1.35;100.00
29903;BME280;30288;50.514;9.678;2024-03-07T04:20:25;99351.13;;;1.31;100.00
29903;BME280;30288;50.514;9.678;2024-03-07T04:22:31;99356.13;;;1.34;100.00
29903;BME280;30288;50.514;9.678;2024-03-07T04:24:37;99352.22;;;1.45;100.00
29903;BME280;30288;50.514;9.678;2024-03-07T04:26:42;99344.72;;;1.42;100.00
29903;BME280;30288;50.514;9.678;2024-03-07T04:28:47;99349.75;;;1.45;100.00
29903;BME280;30288;50.514;9.678;2024-03-07T04:30:53;99351.47;;;1.49;100.00
29903;BME280;30288;50.514;9.678;2024-03-07T04:32:59;99350.78;;;1.58;100.00
29903;BME280;30288;50.514;9.678;2024-03-07T04:35:06;99341.00;;;1.65;100.00
29903;BME280;30288;50.514;9.678;2024-03-07T04:37:19;99341.00;;;1.67;100.00
29903;BME280;30288;50.514;9.678;2024-03-07T04:39:24;99343.53;;;1.68;100.00
29903;BME280;30288;50.514;9.678;2024-03-07T04:41:32;99341.84;;;1.66;100.00
29903;BME280;30288;50.514;9.678;2024-03-07T04:43:38;99340.00;;;1.57;100.00
29903;BME280;30288;50.514;9.678;2024-03-07T04:45:45;99342.31;;;1.47;100.00
29903;BME280;30288;50.514;9.678;2024-03-07T04:47:50;99344.72;;;1.44;100.00
29903;BME280;30288;50.514;9.678;2024-03-07T04:49:53;99341.31;;;1.37;100.00
29903;BME280;30288;50.514;9.678;2024-03-07T04:52:00;99345.28;;;1.27;100.00
29903;BME280;30288;50.514;9.678;2024-03-07T04:54:10;99343.50;;;1.22;100.00
29903;BME280;30288;50.514;9.678;2024-03-07T04:56:16;99339.13;;;1.09;100.00
29903;BME280;30288;50.514;9.678;2024-03-07T04:58:21;99341.31;;;0.95;100.00
29903;BME280;30288;50.514;9.678;2024-03-07T05:00:26;99341.13;;;0.84;100.00
29903;BME280;30288;50.514;9.678;2024-03-07T05:02:33;99348.38;;;0.75;100.00
29903;BME280;30288;50.514;9.678;2024-03-07T05:04:36;99340.00;;;0.70;100.00
29903;BME280;30288;50.514;9.678;2024-03-07T05:06:42;99341.53;;;0.65;100.00
29903;BME280;30288;50.514;9.678;2024-03-07T05:08:50;99346.41;;;0.62;100.00
29903;BME280;30288;50.514;9.678;2024-03-07T05:10:57;99346.59;;;0.70;100.00
29903;BME280;30288;50.514;9.678;2024-03-07T05:13:03;99345.06;;;0.76;100.00
29903;BME280;30288;50.514;9.678;2024-03-07T05:15:08;99344.34;;;0.80;100.00
29903;BME280;30288;50.514;9.678;2024-03-07T05:17:12;99340.31;;;0.85;100.00
29903;BME280;30288;50.514;9.678;2024-03-07T05:19:20;99342.75;;;0.84;100.00
29903;BME280;30288;50.514;9.678;2024-03-07T05:21:28;99338.63;;;0.84;100.00
29903;BME280;30288;50.514;9.678;2024-03-07T05:23:39;99332.81;;;0.82;100.00
29903;BME280;30288;50.514;9.678;2024-03-07T05:25:44;99343.59;;;0.84;100.00
29903;BME280;30288;50.514;9.678;2024-03-07T05:27:55;99339.22;;;0.73;100.00
29903;BME280;30288;50.514;9.678;2024-03-07T05:30:02;99340.50;;;0.56;100.00
29903;BME280;30288;50.514;9.678;2024-03-07T05:32:22;99344.28;;;0.40;100.00
29903;BME280;30288;50.514;9.678;2024-03-07T05:34:28;99352.31;;;0.30;100.00
29903;BME280;30288;50.514;9.678;2024-03-07T05:36:35;99348.81;;;0.22;100.00
29903;BME280;30288;50.514;9.678;2024-03-07T05:38:46;99349.91;;;1.09;100.00
29903;BME280;30288;50.514;9.678;2024-03-07T05:40:51;99353.59;;;0.89;100.00
29903;BME280;30288;50.514;9.678;2024-03-07T05:42:59;99347.19;;;1.00;100.00
29903;BME280;30288;50.514;9.678;2024-03-07T05:45:05;99342.47;;;1.11;100.00
29903;BME280;30288;50.514;9.678;2024-03-07T05:47:13;99351.00;;;1.23;100.00
29903;BME280;30288;50.514;9.678;2024-03-07T05:49:19;99345.06;;;1.17;100.00
29903;BME280;30288;50.514;9.678;2024-03-07T05:51:25;99345.47;;;0.95;100.00
29903;BME280;30288;50.514;9.678;2024-03-07T05:53:28;99353.44;;;0.81;100.00
29903;BME280;30288;50.514;9.678;2024-03-07T05:55:33;99348.78;;;0.58;100.00
29903;BME280;30288;50.514;9.678;2024-03-07T05:57:38;99351.13;;;0.50;100.00
29903;BME280;30288;50.514;9.678;2024-03-07T05:59:48;99348.69;;;0.53;100.00
29903;BME280;30288;50.514;9.678;2024-03-07T06:01:53;99353.78;;;0.59;100.00
29903;BME280;30288;50.514;9.678;2024-03-07T06:03:59;99342.47;;;0.70;100.00
29903;BME280;30288;50.514;9.678;2024-03-07T06:06:04;99352.06;;;0.96;100.00
29903;BME280;30288;50.514;9.678;2024-03-07T06:08:14;99345.88;;;1.16;100.00
29903;BME280;30288;50.514;9.678;2024-03-07T06:10:20;99353.03;;;1.44;100.00
29903;BME280;30288;50.514;9.678;2024-03-07T06:12:26;99354.28;;;1.69;100.00
29903;BME280;30288;50.514;9.678;2024-03-07T06:14:31;99353.72;;;1.84;100.00
29903;BME280;30288;50.514;9.678;2024-03-07T06:16:40;99353.09;;;1.97;100.00
29903;BME280;30288;50.514;9.678;2024-03-07T06:18:45;99350.78;;;2.06;100.00
29903;BME280;30288;50.514;9.678;2024-03-07T06:20:51;99351.66;;;2.08;100.00
29903;BME280;30288;50.514;9.678;2024-03-07T06:22:57;99354.31;;;2.20;100.00
29903;BME280;30288;50.514;9.678;2024-03-07T06:25:06;99353.59;;;2.29;100.00
29903;BME280;30288;50.514;9.678;2024-03-07T06:27:21;99348.66;;;2.30;100.00
29903;BME280;30288;50.514;9.678;2024-03-07T06:29:40;99349.53;;;2.32;100.00
29903;BME280;30288;50.514;9.678;2024-03-07T06:31:48;99351.28;;;2.39;100.00
29903;BME280;30288;50.514;9.678;2024-03-07T06:33:56;99345.59;;;2.46;100.00
29903;BME280;30288;50.514;9.678;2024-03-07T06:36:03;99354.69;;;2.47;100.00
29903;BME280;30288;50.514;9.678;2024-03-07T06:38:09;99344.50;;;2.29;100.00
29903;BME280;30288;50.514;9.678;2024-03-07T06:40:16;99349.09;;;2.05;100.00
29903;BME280;30288;50.514;9.678;2024-03-07T06:42:24;99357.16;;;1.92;100.00
29903;BME280;30288;50.514;9.678;2024-03-07T06:44:29;99348.88;;;1.90;100.00
29903;BME280;30288;50.514;9.678;2024-03-07T06:46:35;99355.41;;;1.85;100.00
29903;BME280;30288;50.514;9.678;2024-03-07T06:48:43;99352.03;;;1.83;100.00
29903;BME280;30288;50.514;9.678;2024-03-07T06:50:48;99343.84;;;1.87;100.00
29903;BME280;30288;50.514;9.678;2024-03-07T06:52:55;99351.34;;;1.90;100.00
29903;BME280;30288;50.514;9.678;2024-03-07T06:55:04;99339.84;;;1.96;100.00
29903;BME280;30288;50.514;9.678;2024-03-07T06:57:10;99342.63;;;2.13;100.00
29903;BME280;30288;50.514;9.678;2024-03-07T06:59:15;99343.56;;;2.21;100.00
29903;BME280;30288;50.514;9.678;2024-03-07T07:01:21;99347.94;;;2.39;100.00
29903;BME280;30288;50.514;9.678;2024-03-07T07:03:28;99341.47;;;2.48;100.00
29903;BME280;30288;50.514;9.678;2024-03-07T07:05:37;99343.28;;;2.60;100.00
29903;BME280;30288;50.514;9.678;2024-03-07T07:07:46;99347.56;;;2.72;100.00
29903;BME280;30288;50.514;9.678;2024-03-07T07:09:51;99342.00;;;2.88;100.00
29903;BME280;30288;50.514;9.678;2024-03-07T07:11:56;99343.78;;;2.98;100.00
29903;BME280;30288;50.514;9.678;2024-03-07T07:14:04;99350.31;;;2.90;100.00
29903;BME280;30288;50.514;9.678;2024-03-07T07:16:10;99342.91;;;2.96;100.00
29903;BME280;30288;50.514;9.678;2024-03-07T07:18:15;99346.94;;;2.85;100.00
29903;BME280;30288;50.514;9.678;2024-03-07T07:20:19;99347.09;;;2.97;100.00
29903;BME280;30288;50.514;9.678;2024-03-07T07:22:29;99343.81;;;3.01;100.00
29903;BME280;30288;50.514;9.678;2024-03-07T07:24:38;99347.13;;;3.00;100.00
29903;BME280;30288;50.514;9.678;2024-03-07T07:26:43;99345.47;;;3.00;100.00
29903;BME280;30288;50.514;9.678;2024-03-07T07:28:49;99339.00;;;3.13;100.00
29903;BME280;30288;50.514;9.678;2024-03-07T07:30:56;99348.09;;;3.14;100.00
29903;BME280;30288;50.514;9.678;2024-03-07T07:33:01;99346.53;;;3.21;100.00
29903;BME280;30288;50.514;9.678;2024-03-07T07:35:07;99337.50;;;3.30;100.00
29903;BME280;30288;50.514;9.678;2024-03-07T07:37:11;99340.16;;;3.45;100.00
29903;BME280;30288;50.514;9.678;2024-03-07T07:39:19;99340.25;;;3.55;100.00
29903;BME280;30288;50.514;9.678;2024-03-07T07:41:24;99337.88;;;3.67;100.00
29903;BME280;30288;50.514;9.678;2024-03-07T07:43:30;99334.69;;;3.80;100.00
29903;BME280;30288;50.514;9.678;2024-03-07T07:45:44;99326.50;;;3.96;100.00
29903;BME280;30288;50.514;9.678;2024-03-07T07:47:51;99333.28;;;4.12;100.00
29903;BME280;30288;50.514;9.678;2024-03-07T07:50:00;99322.56;;;4.25;100.00
29903;BME280;30288;50.514;9.678;2024-03-07T07:52:04;99326.84;;;4.45;100.00
29903;BME280;30288;50.514;9.678;2024-03-07T07:54:10;99331.84;;;4.42;100.00
29903;BME280;30288;50.514;9.678;2024-03-07T07:56:18;99328.59;;;4.55;100.00
29903;BME280;30288;50.514;9.678;2024-03-07T07:58:27;99330.31;;;4.65;100.00
29903;BME280;30288;50.514;9.678;2024-03-07T08:00:32;99333.78;;;5.00;100.00
29903;BME280;30288;50.514;9.678;2024-03-07T08:02:37;99333.78;;;5.00;100.00
29903;BME280;30288;50.514;9.678;2024-03-07T08:04:40;99331.34;;;5.08;100.00
29903;BME280;30288;50.514;9.678;2024-03-07T08:06:47;99333.84;;;5.18;100.00
29903;BME280;30288;50.514;9.678;2024-03-07T08:08:52;99333.09;;;5.39;100.00
29903;BME280;30288;50.514;9.678;2024-03-07T08:10:54;99328.94;;;5.52;100.00
29903;BME280;30288;50.514;9.678;2024-03-07T08:13:05;99327.28;;;5.61;100.00
29903;BME280;30288;50.514;9.678;2024-03-07T08:15:15;99322.31;;;5.81;100.00
29903;BME280;30288;50.514;9.678;2024-03-07T08:17:21;99319.84;;;6.19;100.00
29903;BME280;30288;50.514;9.678;2024-03-07T08:19:27;99316.44;;;6.64;100.00
29903;BME280;30288;50.514;9.678;2024-03-07T08:21:32;99315.66;;;6.32;100.00
29903;BME280;30288;50.514;9.678;2024-03-07T08:23:39;99314.00;;;6.35;100.00
29903;BME280;30288;50.514;9.678;2024-03-07T08:25:45;99318.97;;;6.37;100.00
29903;BME280;30288;50.514;9.678;2024-03-07T08:27:51;99310.69;;;6.21;100.00
29903;BME280;30288;50.514;9.678;2024-03-07T08:29:59;99307.31;;;6.36;100.00
29903;BME280;30288;50.514;9.678;2024-03-07T08:32:07;99316.50;;;6.15;100.00
29903;BME280;30288;50.514;9.678;2024-03-07T08:34:12;99315.66;;;6.35;100.00
29903;BME280;30288;50.514;9.678;2024-03-07T08:36:17;99320.59;;;6.56;100.00
29903;BME280;30288;50.514;9.678;2024-03-07T08:38:22;99322.22;;;6.75;100.00
29903;BME280;30288;50.514;9.678;2024-03-07T08:40:30;99328.94;;;6.64;100.00
29903;BME280;30288;50.514;9.678;2024-03-07T08:42:37;99322.22;;;6.75;100.00
29903;BME280;30288;50.514;9.678;2024-03-07T08:44:43;99314.75;;;6.66;100.00
29903;BME280;30288;50.514;9.678;2024-03-07T08:46:51;99320.50;;;6.92;100.00
29903;BME280;30288;50.514;9.678;2024-03-07T08:48:57;99317.13;;;7.02;100.00
29903;BME280;30288;50.514;9.678;2024-03-07T08:51:03;99312.06;;;7.15;100.00
29903;BME280;30288;50.514;9.678;2024-03-07T08:53:09;99306.97;;;7.30;100.00
29903;BME280;30288;50.514;9.678;2024-03-07T08:55:15;99310.41;;;7.11;100.00
29903;BME280;30288;50.514;9.678;2024-03-07T08:57:19;99311.31;;;6.97;100.00
29903;BME280;30288;50.514;9.678;2024-03-07T08:59:24;99311.31;;;6.96;100.00
29903;BME280;30288;50.514;9.678;2024-03-07T09:01:29;99311.25;;;7.11;100.00
29903;BME280;30288;50.514;9.678;2024-03-07T09:03:39;99303.72;;;7.13;100.00
29903;BME280;30288;50.514;9.678;2024-03-07T09:05:46;99312.00;;;7.27;100.00
29903;BME280;30288;50.514;9.678;2024-03-07T09:07:54;99311.97;;;7.30;100.00
29903;BME280;30288;50.514;9.678;2024-03-07T09:09:59;99305.28;;;7.29;100.00
29903;BME280;30288;50.514;9.678;2024-03-07T09:12:06;99306.06;;;7.37;100.00
29903;BME280;30288;50.514;9.678;2024-03-07T09:14:12;99294.31;;;7.50;100.00
29903;BME280;30288;50.514;9.678;2024-03-07T09:16:17;99298.31;;;7.73;100.00
29903;BME280;30288;50.514;9.678;2024-03-07T09:18:23;99295.09;;;7.56;100.00
29903;BME280;30288;50.514;9.678;2024-03-07T09:20:31;99289.28;;;7.53;100.00
29903;BME280;30288;50.514;9.678;2024-03-07T09:22:37;99280.91;;;7.52;100.00
29903;BME280;30288;50.514;9.678;2024-03-07T09:24:40;99287.47;;;7.74;100.00
29903;BME280;30288;50.514;9.678;2024-03-07T09:26:45;99289.22;;;7.63;100.00
29903;BME280;30288;50.514;9.678;2024-03-07T09:28:51;99289.09;;;7.78;100.00
29903;BME280;30288;50.514;9.678;2024-03-07T09:30:57;99286.56;;;7.81;100.00
29903;BME280;30288;50.514;9.678;2024-03-07T09:33:03;99288.22;;;7.82;100.00
29903;BME280;30288;50.514;9.678;2024-03-07T09:35:13;99284.97;;;7.74;100.00
29903;BME280;30288;50.514;9.678;2024-03-07T09:37:22;99278.34;;;7.61;100.00
29903;BME280;30288;50.514;9.678;2024-03-07T09:39:25;99279.78;;;7.89;100.00
29903;BME280;30288;50.514;9.678;2024-03-07T09:41:33;99279.78;;;7.93;100.00
29903;BME280;30288;50.514;9.678;2024-03-07T09:43:39;99274.72;;;7.96;100.00
29903;BME280;30288;50.514;9.678;2024-03-07T09:45:46;99277.91;;;8.16;100.00
29903;BME280;30288;50.514;9.678;2024-03-07T09:47:53;99283.59;;;8.34;100.00
29903;BME280;30288;50.514;9.678;2024-03-07T09:50:01;99284.53;;;8.21;100.00
29903;BME280;30288;50.514;9.678;2024-03-07T09:52:10;99294.72;;;8.05;100.00
29903;BME280;30288;50.514;9.678;2024-03-07T09:54:20;99286.72;;;7.57;100.00
29903;BME280;30288;50.514;9.678;2024-03-07T09:56:28;99291.75;;;7.57;100.00
29903;BME280;30288;50.514;9.678;2024-03-07T09:58:39;99298.63;;;7.25;100.00
29903;BME280;30288;50.514;9.678;2024-03-07T10:00:45;99303.63;;;7.28;100.00
29903;BME280;30288;50.514;9.678;2024-03-07T10:02:57;99295.25;;;7.35;100.00
29903;BME280;30288;50.514;9.678;2024-03-07T10:05:05;99297.03;;;7.12;100.00
29903;BME280;30288;50.514;9.678;2024-03-07T10:07:17;99308.78;;;7.00;100.00
29903;BME280;30288;50.514;9.678;2024-03-07T10:09:25;99307.06;;;7.12;100.00
29903;BME280;30288;50.514;9.678;2024-03-07T10:11:33;99304.56;;;7.09;100.00
29903;BME280;30288;50.514;9.678;2024-03-07T10:13:39;99299.56;;;7.04;100.00
29903;BME280;30288;50.514;9.678;2024-03-07T10:15:44;99298.75;;;7.00;100.00
29903;BME280;30288;50.514;9.678;2024-03-07T10:17:50;99300.34;;;7.14;100.00
29903;BME280;30288;50.514;9.678;2024-03-07T10:19:55;99298.59;;;7.34;100.00
29903;BME280;30288;50.514;9.678;2024-03-07T10:21:58;99303.66;;;7.25;100.00
29903;BME280;30288;50.514;9.678;2024-03-07T10:24:09;99291.19;;;7.16;100.00
29903;BME280;30288;50.514;9.678;2024-03-07T10:26:16;99294.41;;;7.34;100.00
29903;BME280;30288;50.514;9.678;2024-03-07T10:28:22;99285.22;;;7.35;100.00
29903;BME280;30288;50.514;9.678;2024-03-07T10:30:27;99290.97;;;7.46;100.00
29903;BME280;30288;50.514;9.678;2024-03-07T10:32:32;99289.31;;;7.48;100.00
29903;BME280;30288;50.514;9.678;2024-03-07T10:34:38;99289.19;;;7.66;100.00
29903;BME280;30288;50.514;9.678;2024-03-07T10:36:48;99291.66;;;7.72;100.00
29903;BME280;30288;50.514;9.678;2024-03-07T10:38:54;99284.97;;;7.74;100.00
29903;BME280;30288;50.514;9.678;2024-03-07T10:41:00;99289.97;;;7.70;100.00
29903;BME280;30288;50.514;9.678;2024-03-07T10:43:11;99284.28;;;7.50;100.00
29903;BME280;30288;50.514;9.678;2024-03-07T10:45:19;99296.25;;;7.07;100.00
29903;BME280;30288;50.514;9.678;2024-03-07T10:47:27;99289.53;;;7.12;100.00
29903;BME280;30288;50.514;9.678;2024-03-07T10:49:36;99288.75;;;6.94;100.00
29903;BME280;30288;50.514;9.678;2024-03-07T10:51:47;99287.13;;;6.92;100.00
29903;BME280;30288;50.514;9.678;2024-03-07T10:54:05;99287.91;;;7.00;100.00
29903;BME280;30288;50.514;9.678;2024-03-07T10:56:28;99285.47;;;6.80;100.00
29903;BME280;30288;50.514;9.678;2024-03-07T10:58:42;99284.66;;;6.81;100.00
29903;BME280;30288;50.514;9.678;2024-03-07T11:00:48;99280.47;;;6.80;100.00
29903;BME280;30288;50.514;9.678;2024-03-07T11:02:54;99280.53;;;6.73;100.00
29903;BME280;30288;50.514;9.678;2024-03-07T11:05:00;99273.81;;;6.81;100.00
29903;BME280;30288;50.514;9.678;2024-03-07T11:07:08;99278.78;;;6.87;100.00
29903;BME280;30288;50.514;9.678;2024-03-07T11:09:14;99276.25;;;6.97;100.00